createdAt,value
2018-07-23T17:55:09.942Z,44.5
2018-07-23T17:56:06.568Z,45.4
2018-07-23T17:57:11.876Z,45
2018-07-23T17:58:18.013Z,44.9
2018-07-23T17:59:18.974Z,44.8
2018-07-23T18:00:23.547Z,44.7
2018-07-23T18:01:32.939Z,44.6
2018-07-23T18:02:33.544Z,44.5
2018-07-23T18:03:35.968Z,44.4
2018-07-23T18:04:41.187Z,44.3
2018-07-23T18:05:42.353Z,44.3
2018-07-23T18:06:41.363Z,44.2
2018-07-23T18:07:55.597Z,44.1
2018-07-23T18:08:47.667Z,44
2018-07-23T18:09:46.336Z,44
2018-07-23T18:10:47.937Z,43.9
2018-07-23T18:11:45.674Z,43.8
2018-07-23T18:12:45.397Z,43.9
2018-07-23T18:13:45.004Z,44
2018-07-23T18:14:50.512Z,44
2018-07-23T18:15:47.128Z,44
2018-07-23T18:16:47.090Z,43.9
2018-07-23T18:17:50.347Z,43.9
2018-07-23T18:18:46.639Z,43.9
2018-07-23T18:19:45.655Z,43.8
2018-07-23T18:20:51.132Z,43.7
2018-07-23T18:22:05.002Z,43.7
2018-07-23T18:23:03.305Z,43.6
2018-07-23T18:24:01.198Z,43.6
2018-07-23T18:25:01.438Z,43.5
2018-07-23T18:25:57.758Z,43.5
2018-07-23T18:26:55.365Z,43.4
2018-07-23T18:28:02.271Z,43.4
2018-07-23T18:29:02.070Z,43.9
2018-07-23T18:30:04.340Z,43.8
2018-07-23T18:31:11.695Z,43.8
2018-07-23T18:32:12.893Z,43.7
2018-07-23T18:33:11.682Z,43.7
2018-07-23T18:34:06.149Z,43.6
2018-07-23T18:35:20.334Z,43.6
2018-07-23T18:36:14.326Z,43.6
2018-07-23T18:37:13.369Z,43.6
2018-07-23T18:38:12.221Z,43.6
2018-07-23T18:39:15.503Z,43.6
2018-07-23T18:40:23.020Z,43.5
2018-07-23T18:41:23.651Z,43.5
2018-07-23T18:42:22.950Z,43.5
2018-07-23T18:43:24.109Z,43.4
2018-07-23T18:44:21.638Z,43.3
2018-07-23T18:45:27.196Z,43.3
2018-07-23T18:46:22.784Z,43.3
2018-07-23T18:47:20.384Z,43.3
2018-07-23T18:48:23.970Z,43.2
2018-07-23T18:49:21.401Z,43.2
2018-07-23T18:50:19.471Z,43.2
2018-07-23T18:51:18.863Z,43.2
2018-07-23T18:52:29.185Z,43.2
2018-07-23T18:53:29.302Z,43.2
2018-07-23T18:54:27.163Z,43.2
2018-07-23T18:55:26.957Z,43.2
2018-07-23T18:56:24.917Z,43.2
2018-07-23T18:57:25.834Z,43.2
2018-07-23T18:58:27.730Z,43.2
2018-07-23T18:59:30.266Z,43.2
2018-07-23T19:00:28.939Z,43.2
2018-07-23T19:01:28.773Z,43.2
2018-07-23T19:02:39.899Z,43.2
2018-07-23T19:03:40.156Z,43.2
2018-07-23T19:04:37.957Z,43.1
2018-07-23T19:05:37.855Z,43.1
2018-07-23T19:06:33.378Z,43.1
2018-07-23T19:07:37.457Z,43.1
2018-07-23T19:08:41.919Z,43.1
2018-07-23T19:09:41.652Z,43.2
2018-07-23T19:10:40.483Z,43.3
2018-07-23T19:11:45.858Z,43.3
2018-07-23T19:12:41.364Z,43.4
2018-07-23T19:13:43.928Z,43.4
2018-07-23T19:14:43.287Z,43.4
2018-07-23T19:15:38.722Z,43.4
2018-07-23T19:16:44.036Z,43.4
2018-07-23T19:17:41.606Z,43.4
2018-07-23T19:18:55.706Z,43.3
2018-07-23T19:20:00.109Z,43.3
2018-07-23T19:21:02.739Z,43.3
2018-07-23T19:21:57.880Z,43.4
2018-07-23T19:23:02.216Z,43.4
2018-07-23T19:24:18.681Z,43.4
2018-07-23T19:25:19.301Z,43.4
2018-07-23T19:26:15.313Z,43.5
2018-07-23T19:27:13.532Z,43.7
2018-07-23T19:28:11.195Z,43.8
2018-07-23T19:29:09.215Z,43.8
2018-07-23T19:30:07.707Z,43.9
2018-07-23T19:31:11.064Z,43.9
2018-07-23T19:32:14.744Z,43.9
2018-07-23T19:33:37.225Z,44
2018-07-23T19:34:36.261Z,43.9
2018-07-23T19:35:35.249Z,43.9
2018-07-23T19:36:39.239Z,44
2018-07-23T19:37:37.317Z,43.9
2018-07-23T19:38:35.683Z,43.8
2018-07-23T19:39:35.831Z,43.8
2018-07-23T19:40:40.209Z,43.8
2018-07-23T19:41:43.005Z,43.9
2018-07-23T19:42:39.668Z,44
2018-07-23T19:43:53.154Z,44.1
2018-07-23T19:44:48.877Z,44.2
2018-07-23T19:45:54.954Z,44.1
2018-07-23T19:46:53.180Z,44.3
2018-07-23T19:47:52.577Z,44.3
2018-07-23T19:48:56.972Z,44.2
2018-07-23T19:50:04.307Z,44.2
2018-07-23T19:51:07.081Z,44.2
2018-07-23T19:52:07.473Z,44.2
2018-07-23T19:53:09.035Z,44.2
2018-07-23T19:54:12.972Z,44.3
2018-07-23T19:55:11.280Z,44.2
2018-07-23T19:56:11.423Z,44.2
2018-07-23T19:57:11.984Z,44.3
2018-07-23T19:58:10.461Z,44.3
2018-07-23T19:59:12.239Z,44.3
2018-07-23T20:00:30.209Z,44.4
2018-07-23T20:01:26.003Z,44.5
2018-07-23T20:02:32.106Z,44.5
2018-07-23T20:03:29.830Z,44.7
2018-07-23T20:04:25.218Z,44.5
2018-07-23T20:05:30.298Z,44.4
2018-07-23T20:06:34.959Z,44.4
2018-07-23T20:07:31.255Z,44.2
2018-07-23T20:08:42.771Z,44.4
2018-07-23T20:09:43.575Z,44.9
2018-07-23T20:10:43.413Z,46
2018-07-23T20:11:44.440Z,46
2018-07-23T20:12:42.955Z,45.4
2018-07-23T20:13:45.914Z,45.4
2018-07-23T20:15:05.758Z,45
2018-07-23T20:16:07.154Z,45.1
2018-07-23T20:17:11.039Z,45.4
2018-07-23T20:18:13.128Z,45.4
2018-07-23T20:19:08.481Z,45.5
2018-07-23T20:20:11.865Z,45.5
2018-07-23T20:21:09.213Z,45.5
2018-07-23T20:22:09.113Z,45.5
2018-07-23T20:23:16.393Z,45.5
2018-07-23T20:24:17.554Z,45.5
2018-07-23T20:25:17.198Z,45.3
2018-07-23T20:26:15.175Z,45.5
2018-07-23T20:27:28.254Z,45.5
2018-07-23T20:28:24.273Z,46
2018-07-23T20:29:22.803Z,46
2018-07-23T20:30:28.209Z,46
2018-07-23T20:31:29.212Z,46
2018-07-23T20:32:32.104Z,46
2018-07-23T20:33:34.519Z,46
2018-07-23T20:34:33.038Z,46
2018-07-23T20:35:34.111Z,46
2018-07-23T20:36:39.015Z,46
2018-07-23T20:37:42.976Z,46
2018-07-23T20:38:42.912Z,46.1
2018-07-23T20:39:47.258Z,46
2018-07-23T20:40:50.396Z,46
2018-07-23T20:41:46.368Z,46
2018-07-23T20:42:57.912Z,46
2018-07-23T20:43:53.016Z,46
2018-07-23T20:44:51.494Z,46
2018-07-23T20:45:54.732Z,46
2018-07-23T20:46:49.450Z,46
2018-07-23T20:47:47.509Z,46
2018-07-23T20:48:47.135Z,45.9
2018-07-23T20:49:55.522Z,46
2018-07-23T20:50:59.004Z,46
2018-07-23T20:52:01.581Z,46
2018-07-23T20:53:06.656Z,46
2018-07-23T20:54:07.416Z,46
2018-07-23T20:55:05.403Z,45.5
2018-07-23T20:56:04.446Z,46
2018-07-23T20:57:04.155Z,46
2018-07-23T20:58:02.646Z,45.9
2018-07-23T20:59:17.509Z,45.9
2018-07-23T21:00:14.393Z,45.9
2018-07-23T21:01:27.084Z,45.9
2018-07-23T21:02:27.667Z,45.9
2018-07-23T21:03:25.660Z,45.9
2018-07-23T21:04:26.771Z,45.9
2018-07-23T21:05:21.839Z,46
2018-07-23T21:06:24.582Z,46
2018-07-23T21:07:25.478Z,45.9
2018-07-23T21:08:22.798Z,45.6
2018-07-23T21:09:20.310Z,45.5
2018-07-23T21:10:21.393Z,45.1
2018-07-23T21:11:33.398Z,45.3
2018-07-23T21:12:28.121Z,45.2
2018-07-23T21:13:23.188Z,45.2
2018-07-23T21:14:26.836Z,45.3
2018-07-23T21:15:25.641Z,45.3
2018-07-23T21:16:24.514Z,45.4
2018-07-23T21:17:23.587Z,45.4
2018-07-23T21:18:24.390Z,45.4
2018-07-23T21:19:28.193Z,45.5
2018-07-23T21:20:24.734Z,45.5
2018-07-23T21:21:24.634Z,45.6
2018-07-23T21:22:26.030Z,45.6
2018-07-23T21:23:23.974Z,45.8
2018-07-23T21:24:19.088Z,45.9
2018-07-23T21:25:47.214Z,45.4
2018-07-23T21:26:34.289Z,45.6
2018-07-23T21:27:32.962Z,45.6
2018-07-23T21:28:35.880Z,45.6
2018-07-23T21:29:38.764Z,45.6
2018-07-23T21:30:55.088Z,45.6
2018-07-23T21:31:53.912Z,45.5
2018-07-23T21:33:05.310Z,45.4
2018-07-23T21:34:07.514Z,44.8
2018-07-23T21:35:04.003Z,45.2
2018-07-23T21:36:16.484Z,45.2
2018-07-23T21:37:12.254Z,44.5
2018-07-23T21:38:08.604Z,44.5
2018-07-23T21:39:10.394Z,45
2018-07-23T21:40:08.762Z,45
2018-07-23T21:41:14.040Z,45
2018-07-23T21:42:13.011Z,44.9
2018-07-23T21:43:16.244Z,44.4
2018-07-23T21:44:14.842Z,44.4
2018-07-23T21:45:15.757Z,44.4
2018-07-23T21:46:13.297Z,44.3
2018-07-23T21:47:11.342Z,44.3
2018-07-23T21:48:09.753Z,44.3
2018-07-23T21:49:08.587Z,44.3
2018-07-23T21:50:07.687Z,44.3
2018-07-23T21:51:19.571Z,44.3
2018-07-23T21:52:25.165Z,44.3
2018-07-23T21:53:26.278Z,44.4
2018-07-23T21:54:28.704Z,44.4
2018-07-23T21:55:26.426Z,44.3
2018-07-23T21:56:24.026Z,44.4
2018-07-23T21:57:25.346Z,44.4
2018-07-23T21:58:20.519Z,44.4
2018-07-23T21:59:18.063Z,44.4
2018-07-23T22:00:18.178Z,44.4
2018-07-23T22:01:19.461Z,44.5
2018-07-23T22:02:20.632Z,44.4
2018-07-23T22:03:17.639Z,44.5
2018-07-23T22:04:20.421Z,44.5
2018-07-23T22:05:16.719Z,44.5
2018-07-23T22:06:32.384Z,44.5
2018-07-23T22:07:35.097Z,44.5
2018-07-23T22:08:37.424Z,44.5
2018-07-23T22:09:32.748Z,44.6
2018-07-23T22:10:34.158Z,44.5
2018-07-23T22:11:30.656Z,44.6
2018-07-23T22:12:33.172Z,44.6
2018-07-23T22:13:31.964Z,44.6
2018-07-23T22:14:46.516Z,44.7
2018-07-23T22:15:46.237Z,44.7
2018-07-23T22:16:45.166Z,44.7
2018-07-23T22:17:47.038Z,44.7
2018-07-23T22:18:44.653Z,44.7
2018-07-23T22:19:43.335Z,44.7
2018-07-23T22:20:44.619Z,44.7
2018-07-23T22:21:49.375Z,44.7
2018-07-23T22:22:47.394Z,44.8
2018-07-23T22:23:47.412Z,44.8
2018-07-23T22:24:45.837Z,44.8
2018-07-23T22:25:43.281Z,44.8
2018-07-23T22:27:04.480Z,44.8
2018-07-23T22:27:59.480Z,44.7
2018-07-23T22:28:58.325Z,44.7
2018-07-23T22:29:56.854Z,44.6
2018-07-23T22:30:58.287Z,44.6
2018-07-23T22:31:57.999Z,44.6
2018-07-23T22:32:59.049Z,44.6
2018-07-23T22:33:55.658Z,44.6
2018-07-23T22:34:56.688Z,44.6
2018-07-23T22:35:57.758Z,44.6
2018-07-23T22:36:58.806Z,44.6
2018-07-23T22:37:58.896Z,44.6
2018-07-23T22:38:58.516Z,44.6
2018-07-23T22:39:53.914Z,44.6
2018-07-23T22:41:07.375Z,44.6
2018-07-23T22:42:18.412Z,44.6
2018-07-23T22:43:16.748Z,44.6
2018-07-23T22:44:16.307Z,44.6
2018-07-23T22:45:15.630Z,44.6
2018-07-23T22:46:18.719Z,44.6
2018-07-23T22:47:20.717Z,44.6
2018-07-23T22:48:17.230Z,44.6
2018-07-23T22:49:20.275Z,44.7
2018-07-23T22:50:23.694Z,44.7
2018-07-23T22:51:20.090Z,44.7
2018-07-23T22:52:23.308Z,44.7
2018-07-23T22:53:23.313Z,44.7
2018-07-23T22:54:35.689Z,44.7
2018-07-23T22:55:31.713Z,44.6
2018-07-23T22:56:30.577Z,44.8
2018-07-23T22:57:25.461Z,44.8
2018-07-23T22:58:23.646Z,44.8
2018-07-23T22:59:25.972Z,44.8
2018-07-23T23:00:33.518Z,44.8
2018-07-23T23:01:34.064Z,44.7
2018-07-23T23:02:35.068Z,44.7
2018-07-23T23:03:31.627Z,44.7
2018-07-23T23:04:29.490Z,44.6
2018-07-23T23:05:32.942Z,44.6
2018-07-23T23:06:50.966Z,44.6
2018-07-23T23:07:47.552Z,44.6
2018-07-23T23:08:48.517Z,44.5
2018-07-23T23:09:50.899Z,44.5
2018-07-23T23:10:46.346Z,44.4
2018-07-23T23:11:45.083Z,44.4
2018-07-23T23:12:43.166Z,44.4
2018-07-23T23:13:46.240Z,44.3
2018-07-23T23:14:46.975Z,44.4
2018-07-23T23:15:48.245Z,44.4
2018-07-23T23:16:46.056Z,44.4
2018-07-23T23:17:42.618Z,44.4
2018-07-23T23:19:01.521Z,44.3
2018-07-23T23:19:56.268Z,44.4
2018-07-23T23:20:53.584Z,44.3
2018-07-23T23:21:56.165Z,44.4
2018-07-23T23:23:03.280Z,44.4
2018-07-23T23:24:01.501Z,44.4
2018-07-23T23:25:01.098Z,44.4
2018-07-23T23:25:58.473Z,44.4
2018-07-23T23:27:02.628Z,44.5
2018-07-23T23:28:03.043Z,44.5
2018-07-23T23:29:02.593Z,44.5
2018-07-23T23:30:06.797Z,44.5
2018-07-23T23:31:07.376Z,44.6
2018-07-23T23:32:23.803Z,44.6
2018-07-23T23:33:15.455Z,44.7
2018-07-23T23:34:16.878Z,44.7
2018-07-23T23:35:17.430Z,44.7
2018-07-23T23:36:19.418Z,44.7
2018-07-23T23:37:17.317Z,44.7
2018-07-23T23:38:17.101Z,44.7
2018-07-23T23:39:18.065Z,44.7
2018-07-23T23:40:24.249Z,44.6
2018-07-23T23:41:30.278Z,44.7
2018-07-23T23:42:27.871Z,44.6
2018-07-23T23:43:29.614Z,44.6
2018-07-23T23:44:27.393Z,44.6
2018-07-23T23:45:28.766Z,44.6
2018-07-23T23:46:26.818Z,44.6
2018-07-23T23:47:26.362Z,44.6
2018-07-23T23:48:38.296Z,44.6
2018-07-23T23:49:32.389Z,44.6
2018-07-23T23:50:31.284Z,44.6
2018-07-23T23:51:38.244Z,44.6
2018-07-23T23:52:34.523Z,44.6
2018-07-23T23:53:34.378Z,44.6
2018-07-23T23:54:34.243Z,44.6
2018-07-23T23:55:36.109Z,44.6
2018-07-23T23:56:36.685Z,44.6
2018-07-23T23:57:34.633Z,44.6
2018-07-23T23:58:30.645Z,44.6
2018-07-23T23:59:35.303Z,44.6
